Valparaiso, Nebraska
Current Conditions -  °F | °C
As of 12:35 AM on Sunday 21 Dec 2014 (Local Time) from KAHQ Reporting Station
Moderate Fog Moderate Fog  
Wind Chill: 29°   Ceiling: 200
Heat Index: 35°   Visibility: 0.5mi
Dew Point: 33°   Wind: 8mph
Humidity: 93%   Direction: 140°SE
Pressure: 29.98"   Gusts: NA
Location:  41.08°N, 96.83°W
Report Text: KAHQ 210635Z AUTO 14007KT 1/2SM FG OVC002 02/01 A2998 RMK AO2 T00170007
Loading
Personal Weather Stations






























Interactive Weather Map New forecast layout! Learn more

10-Day Weather Forecast

Advertisements
Track Severe Weather on mobile